Time;durP1;ratioP1;P1;durP2;ratioP2;P2;SDS_P1;SDS_P2;PMS_P1;PMS_P2;Temp;Humidity;BMP_temperature;BMP_pressure;BME280_temperature;BME280_humidity;BME280_pressure;Samples;Min_cycle;Max_cycle;Signal;HPM_P1;HPM_P2
2022/07/09 00:01:03;;;;;;;8.35;4.38;;;;;;;;;;10247463;28;20049;-66
2022/07/09 00:06:03;;;;;;;9.65;4.90;;;;;;;;;;10243292;28;20053;-66
2022/07/09 00:11:02;;;;;;;6.50;4.07;;;;;;;;;;10246866;28;20503;-66
2022/07/09 00:16:00;;;;;;;4.15;3.55;;;;;;;;;;10247155;28;20081;-65
2022/07/09 00:20:58;;;;;;;7.38;3.33;;;;;;;;;;10248388;28;20077;-65
2022/07/09 00:25:58;;;;;;;5.18;3.15;;;;;;;;;;10241105;28;20084;-65
2022/07/09 00:30:57;;;;;;;8.32;3.95;;;;;;;;;;10231937;28;20064;-65
2022/07/09 00:35:55;;;;;;;5.35;3.78;;;;;;;;;;10234323;28;20085;-65
2022/07/09 00:40:53;;;;;;;6.45;3.70;;;;;;;;;;10233995;28;20104;-65
2022/07/09 00:45:53;;;;;;;7.00;3.72;;;;;;;;;;10245855;28;20507;-65
2022/07/09 00:50:52;;;;;;;5.68;3.75;;;;;;;;;;10248025;28;20406;-66
2022/07/09 00:55:51;;;;;;;6.82;3.30;;;;;;;;;;10254075;28;20786;-66
2022/07/09 01:00:49;;;;;;;5.07;3.53;;;;;;;;;;10252648;28;20084;-65
2022/07/09 01:05:49;;;;;;;4.65;3.45;;;;;;;;;;10253647;28;20127;-65
2022/07/09 01:10:48;;;;;;;9.43;3.50;;;;;;;;;;10252092;28;20065;-64
2022/07/09 01:15:47;;;;;;;4.22;3.30;;;;;;;;;;10238981;28;20518;-65
2022/07/09 01:20:46;;;;;;;3.58;3.05;;;;;;;;;;10253765;28;20038;-65
2022/07/09 01:25:45;;;;;;;8.48;3.92;;;;;;;;;;10252331;28;20089;-65
2022/07/09 01:30:43;;;;;;;6.47;3.35;;;;;;;;;;10239932;28;20053;-65
2022/07/09 01:35:42;;;;;;;7.82;3.05;;;;;;;;;;10239679;28;20507;-68
2022/07/09 01:40:41;;;;;;;5.38;3.67;;;;;;;;;;10239577;28;20080;-68
2022/07/09 01:45:40;;;;;;;5.53;3.20;;;;;;;;;;10253333;28;20045;-68
2022/07/09 01:50:39;;;;;;;5.25;3.33;;;;;;;;;;10251004;28;20533;-68
2022/07/09 01:55:37;;;;;;;5.75;3.15;;;;;;;;;;10247927;28;20096;-68
2022/07/09 02:00:37;;;;;;;5.20;3.67;;;;;;;;;;10245615;28;20079;-68
2022/07/09 02:05:38;;;;;;;7.00;3.55;;;;;;;;;;10234769;28;20064;-68
2022/07/09 02:10:39;;;;;;;8.70;3.80;;;;;;;;;;10236273;28;20081;-68
2022/07/09 02:15:39;;;;;;;5.43;3.05;;;;;;;;;;10240156;28;20467;-68
2022/07/09 02:20:38;;;;;;;7.22;3.65;;;;;;;;;;10231928;28;20455;-68
2022/07/09 02:25:36;;;;;;;5.10;3.33;;;;;;;;;;10237316;28;20060;-68
2022/07/09 02:30:36;;;;;;;7.88;3.53;;;;;;;;;;10237731;28;20053;-68
2022/07/09 02:35:36;;;;;;;9.77;3.80;;;;;;;;;;10251830;28;20089;-68
2022/07/09 02:40:35;;;;;;;6.38;4.47;;;;;;;;;;10249693;28;20088;-69
2022/07/09 02:45:33;;;;;;;5.22;3.72;;;;;;;;;;10249519;28;20443;-68
2022/07/09 02:50:31;;;;;;;5.97;3.88;;;;;;;;;;10246933;28;20076;-68
2022/07/09 02:55:31;;;;;;;6.38;4.00;;;;;;;;;;10244149;28;20506;-68
2022/07/09 03:00:29;;;;;;;4.15;3.15;;;;;;;;;;10244332;28;20080;-68
2022/07/09 03:05:28;;;;;;;5.00;3.63;;;;;;;;;;10241602;28;20081;-68
2022/07/09 03:10:26;;;;;;;6.97;3.90;;;;;;;;;;10249618;28;20092;-68
2022/07/09 03:15:26;;;;;;;7.10;4.18;;;;;;;;;;10235870;28;20048;-68
2022/07/09 03:20:24;;;;;;;5.25;4.20;;;;;;;;;;10235854;28;20223;-68
2022/07/09 03:25:23;;;;;;;5.88;3.95;;;;;;;;;;10235122;28;20061;-68
2022/07/09 03:30:22;;;;;;;6.47;3.60;;;;;;;;;;10248558;28;20533;-68
2022/07/09 03:35:21;;;;;;;7.05;4.80;;;;;;;;;;10248852;28;20074;-68
2022/07/09 03:40:20;;;;;;;15.25;5.45;;;;;;;;;;10247241;28;20073;-68
2022/07/09 03:45:18;;;;;;;8.75;4.18;;;;;;;;;;10250749;28;20419;-68
2022/07/09 03:50:17;;;;;;;6.57;4.18;;;;;;;;;;10248913;28;20088;-68
2022/07/09 03:55:17;;;;;;;4.35;3.78;;;;;;;;;;10249185;28;20049;-68
2022/07/09 04:00:16;;;;;;;6.32;3.42;;;;;;;;;;10242939;28;20088;-69
2022/07/09 04:05:15;;;;;;;12.65;4.97;;;;;;;;;;10227689;28;20053;-69
2022/07/09 04:10:13;;;;;;;6.60;3.95;;;;;;;;;;10234868;28;20086;-69
2022/07/09 04:15:13;;;;;;;4.13;3.50;;;;;;;;;;10234481;28;20121;-67
2022/07/09 04:20:12;;;;;;;6.93;4.07;;;;;;;;;;10244524;28;20080;-68
2022/07/09 04:25:10;;;;;;;5.70;3.95;;;;;;;;;;10246315;28;20085;-68
2022/07/09 04:30:09;;;;;;;3.90;3.25;;;;;;;;;;10242424;28;20156;-70
2022/07/09 04:35:09;;;;;;;6.50;5.40;;;;;;;;;;10242206;28;20042;-67
2022/07/09 04:40:08;;;;;;;3.65;3.30;;;;;;;;;;10235524;28;20076;-69
2022/07/09 04:45:07;;;;;;;8.00;3.85;;;;;;;;;;10249736;28;20037;-68
2022/07/09 04:50:06;;;;;;;6.32;4.60;;;;;;;;;;10255187;28;20077;-69
2022/07/09 04:55:06;;;;;;;8.50;3.67;;;;;;;;;;10254506;28;20073;-68
2022/07/09 05:00:05;;;;;;;6.80;4.93;;;;;;;;;;10248131;28;20084;-68
2022/07/09 05:05:05;;;;;;;6.00;4.68;;;;;;;;;;10257839;28;20045;-68
2022/07/09 05:10:04;;;;;;;5.65;3.83;;;;;;;;;;10250844;28;20089;-68
2022/07/09 05:15:04;;;;;;;4.45;3.05;;;;;;;;;;10240810;28;20052;-67
2022/07/09 05:20:03;;;;;;;9.60;3.92;;;;;;;;;;10240648;28;20076;-68
2022/07/09 05:25:02;;;;;;;5.57;3.53;;;;;;;;;;10239770;28;20095;-69
2022/07/09 05:30:00;;;;;;;5.35;3.28;;;;;;;;;;10248875;28;20100;-67
2022/07/09 05:35:00;;;;;;;7.78;5.25;;;;;;;;;;10253983;28;20072;-68
2022/07/09 05:39:59;;;;;;;12.57;8.23;;;;;;;;;;10250323;28;20103;-68
2022/07/09 05:44:58;;;;;;;5.53;4.88;;;;;;;;;;10242103;28;20130;-69
2022/07/09 05:49:56;;;;;;;5.80;3.53;;;;;;;;;;10253732;28;20092;-68
2022/07/09 05:54:56;;;;;;;4.95;4.07;;;;;;;;;;10253306;28;20076;-68
2022/07/09 05:59:55;;;;;;;6.95;3.70;;;;;;;;;;10245114;28;20088;-67
2022/07/09 06:04:53;;;;;;;5.60;3.97;;;;;;;;;;10248601;28;20077;-68
2022/07/09 06:09:52;;;;;;;6.90;3.75;;;;;;;;;;10246913;28;20069;-68
2022/07/09 06:14:52;;;;;;;6.78;4.72;;;;;;;;;;10247065;28;20069;-68
2022/07/09 06:19:50;;;;;;;17.20;15.10;;;;;;;;;;10250493;28;20084;-68
2022/07/09 06:24:49;;;;;;;9.32;6.05;;;;;;;;;;10250402;28;20073;-68
2022/07/09 06:29:47;;;;;;;9.65;5.50;;;;;;;;;;10250518;28;20088;-68
2022/07/09 06:34:46;;;;;;;10.45;6.30;;;;;;;;;;10250005;28;20069;-68
2022/07/09 06:39:45;;;;;;;7.20;5.38;;;;;;;;;;10250480;28;20494;-68
2022/07/09 06:44:43;;;;;;;10.63;6.60;;;;;;;;;;10241570;28;20053;-68
2022/07/09 06:49:42;;;;;;;10.05;6.50;;;;;;;;;;10236121;28;20746;-67
2022/07/09 06:54:41;;;;;;;5.22;4.47;;;;;;;;;;10236883;28;20077;-68
2022/07/09 06:59:40;;;;;;;12.73;9.85;;;;;;;;;;10230060;28;20108;-68
2022/07/09 07:04:38;;;;;;;7.63;5.53;;;;;;;;;;10231730;28;20110;-68
2022/07/09 07:09:36;;;;;;;22.05;11.98;;;;;;;;;;10234212;28;20072;-68
2022/07/09 07:14:36;;;;;;;12.73;11.40;;;;;;;;;;10238117;28;20065;-69
2022/07/09 07:19:34;;;;;;;10.23;5.63;;;;;;;;;;10248424;28;20085;-68
2022/07/09 07:24:33;;;;;;;7.53;5.45;;;;;;;;;;10243560;28;20077;-68
2022/07/09 07:29:31;;;;;;;9.40;4.43;;;;;;;;;;10244932;28;20078;-69
2022/07/09 07:34:31;;;;;;;9.40;6.28;;;;;;;;;;10248200;28;20061;-69
2022/07/09 07:39:31;;;;;;;7.43;4.90;;;;;;;;;;10242287;28;20155;-68
2022/07/09 07:44:29;;;;;;;3.92;2.70;;;;;;;;;;10243960;28;20349;-68
2022/07/09 07:49:27;;;;;;;4.38;3.30;;;;;;;;;;10242572;28;20518;-69
2022/07/09 07:54:27;;;;;;;4.80;2.85;;;;;;;;;;10244066;28;20065;-69
2022/07/09 07:59:26;;;;;;;5.55;2.47;;;;;;;;;;10228709;28;20107;-68
2022/07/09 08:04:24;;;;;;;6.05;3.38;;;;;;;;;;10244815;28;20069;-69
2022/07/09 08:09:23;;;;;;;7.35;2.75;;;;;;;;;;10246771;28;20082;-68
2022/07/09 08:14:22;;;;;;;3.90;2.90;;;;;;;;;;10246353;28;20054;-68
2022/07/09 08:19:21;;;;;;;4.32;2.80;;;;;;;;;;10246638;28;20077;-68
2022/07/09 08:24:19;;;;;;;8.65;2.13;;;;;;;;;;10246451;28;20085;-68
2022/07/09 08:29:17;;;;;;;2.13;1.92;;;;;;;;;;10239837;28;20069;-68
2022/07/09 08:34:17;;;;;;;4.70;2.38;;;;;;;;;;10246234;28;20498;-68
2022/07/09 08:39:16;;;;;;;9.82;2.85;;;;;;;;;;10246069;28;20494;-69
2022/07/09 08:44:14;;;;;;;9.57;2.17;;;;;;;;;;10233932;28;20034;-68
2022/07/09 08:49:14;;;;;;;3.88;3.13;;;;;;;;;;10233744;28;20045;-68
2022/07/09 08:54:14;;;;;;;8.60;4.65;;;;;;;;;;10232120;28;20045;-69
2022/07/09 08:59:13;;;;;;;5.50;3.35;;;;;;;;;;10237052;28;20077;-69
2022/07/09 09:04:11;;;;;;;4.03;2.88;;;;;;;;;;10231983;28;20045;-67
2022/07/09 09:09:10;;;;;;;5.78;3.55;;;;;;;;;;10232749;28;20045;-69
2022/07/09 09:14:18;;;;;;;3.05;2.05;;;;;;;;;;10249706;28;20089;-69
2022/07/09 09:19:16;;;;;;;6.78;2.90;;;;;;;;;;10248892;28;20081;-68
2022/07/09 09:24:22;;;;;;;8.18;2.78;;;;;;;;;;10251179;28;20053;-69
2022/07/09 09:29:22;;;;;;;8.52;3.70;;;;;;;;;;10252352;28;20084;-70
2022/07/09 09:34:21;;;;;;;17.90;7.15;;;;;;;;;;10260080;28;20041;-70
2022/07/09 09:39:20;;;;;;;11.65;4.40;;;;;;;;;;10252775;28;20462;-69
2022/07/09 09:44:20;;;;;;;9.50;5.30;;;;;;;;;;10252043;28;20050;-69
2022/07/09 09:49:20;;;;;;;10.23;3.78;;;;;;;;;;10251766;28;20065;-69
2022/07/09 09:54:19;;;;;;;11.38;5.45;;;;;;;;;;10250693;28;20088;-69
2022/07/09 09:59:18;;;;;;;2.85;1.90;;;;;;;;;;10246516;28;20080;-69
2022/07/09 10:04:18;;;;;;;3.85;2.08;;;;;;;;;;10251623;28;20143;-68
2022/07/09 10:09:19;;;;;;;6.82;2.83;;;;;;;;;;10251327;28;20045;-70
2022/07/09 10:14:18;;;;;;;4.75;3.10;;;;;;;;;;10236568;28;20064;-68
2022/07/09 10:19:24;;;;;;;5.28;2.00;;;;;;;;;;10238120;28;20092;-69
2022/07/09 10:24:27;;;;;;;9.65;4.30;;;;;;;;;;10237384;28;20101;-69
2022/07/09 10:29:26;;;;;;;10.10;1.90;;;;;;;;;;10250527;28;20083;-68
2022/07/09 10:34:46;;;;;;;6.68;2.35;;;;;;;;;;10237692;28;20076;-69
2022/07/09 10:39:55;;;;;;;7.95;2.90;;;;;;;;;;10234638;28;20092;-68
2022/07/09 10:44:53;;;;;;;6.30;2.50;;;;;;;;;;10231537;28;20076;-69
2022/07/09 10:49:51;;;;;;;11.60;2.30;;;;;;;;;;10250893;28;20483;-69
2022/07/09 10:54:50;;;;;;;3.97;2.45;;;;;;;;;;10248991;28;20079;-68
2022/07/09 10:59:49;;;;;;;6.60;3.65;;;;;;;;;;10248823;28;20081;-68
2022/07/09 11:04:51;;;;;;;5.75;4.10;;;;;;;;;;10250097;28;20080;-68
2022/07/09 11:09:50;;;;;;;5.88;5.28;;;;;;;;;;10236665;28;20049;-68
2022/07/09 11:14:50;;;;;;;7.65;3.53;;;;;;;;;;10236017;28;20053;-69
2022/07/09 11:19:49;;;;;;;7.60;4.65;;;;;;;;;;10235737;28;20081;-69
2022/07/09 11:24:47;;;;;;;7.55;4.18;;;;;;;;;;10249578;28;20457;-68
2022/07/09 11:29:47;;;;;;;6.45;4.00;;;;;;;;;;10248915;28;20080;-68
2022/07/09 11:34:52;;;;;;;7.22;2.63;;;;;;;;;;10246569;28;20511;-67
2022/07/09 11:39:51;;;;;;;8.93;4.60;;;;;;;;;;10246788;28;20412;-69
2022/07/09 11:44:57;;;;;;;5.78;2.80;;;;;;;;;;10247762;28;20470;-68
2022/07/09 11:50:04;;;;;;;5.80;2.60;;;;;;;;;;10246326;28;20076;-69
2022/07/09 11:55:04;;;;;;;6.35;2.90;;;;;;;;;;10247857;28;20092;-69
2022/07/09 12:00:03;;;;;;;3.78;3.33;;;;;;;;;;10247165;28;20123;-69
2022/07/09 12:05:09;;;;;;;4.35;3.05;;;;;;;;;;10249940;28;20507;-68
2022/07/09 12:10:09;;;;;;;3.75;3.40;;;;;;;;;;10247700;28;20072;-68
2022/07/09 12:15:08;;;;;;;5.07;4.15;;;;;;;;;;10246193;28;20083;-69
2022/07/09 12:20:09;;;;;;;5.50;3.58;;;;;;;;;;10247126;28;20507;-69
2022/07/09 12:25:09;;;;;;;4.28;2.97;;;;;;;;;;10246380;28;20493;-70
2022/07/09 12:30:08;;;;;;;4.82;2.97;;;;;;;;;;10247203;28;20083;-69
2022/07/09 12:35:07;;;;;;;8.55;4.38;;;;;;;;;;10247971;28;20049;-70
2022/07/09 12:40:07;;;;;;;5.13;4.07;;;;;;;;;;10246530;28;20105;-68
2022/07/09 12:45:07;;;;;;;5.70;2.40;;;;;;;;;;10246887;28;20069;-69
2022/07/09 12:50:09;;;;;;;5.47;2.47;;;;;;;;;;10252962;28;20080;-68
2022/07/09 12:55:09;;;;;;;11.50;3.35;;;;;;;;;;10254149;28;20084;-68
2022/07/09 13:00:10;;;;;;;5.35;2.78;;;;;;;;;;10253779;28;20490;-67
2022/07/09 13:05:09;;;;;;;5.28;2.45;;;;;;;;;;10249471;28;20533;-67
2022/07/09 13:10:08;;;;;;;5.43;3.40;;;;;;;;;;10253793;28;20106;-67
2022/07/09 13:15:07;;;;;;;4.70;2.92;;;;;;;;;;10250639;28;20092;-68
2022/07/09 13:20:07;;;;;;;6.45;4.20;;;;;;;;;;10252517;28;20557;-67
2022/07/09 13:25:07;;;;;;;8.52;4.50;;;;;;;;;;10252358;28;20069;-67
2022/07/09 13:30:06;;;;;;;10.80;3.20;;;;;;;;;;10252917;28;20077;-70
2022/07/09 13:35:04;;;;;;;8.55;4.90;;;;;;;;;;10253054;28;20077;-70
2022/07/09 13:40:05;;;;;;;4.25;3.15;;;;;;;;;;10252604;28;20077;-69
2022/07/09 13:45:03;;;;;;;5.25;3.20;;;;;;;;;;10254978;28;20545;-68
2022/07/09 13:50:01;;;;;;;5.20;4.50;;;;;;;;;;10254222;28;20099;-68
2022/07/09 13:55:00;;;;;;;7.20;2.90;;;;;;;;;;10250094;28;20467;-67
2022/07/09 14:00:00;;;;;;;12.73;7.80;;;;;;;;;;10250655;28;20488;-67
2022/07/09 14:04:58;;;;;;;8.82;7.70;;;;;;;;;;10252100;28;20538;-67
2022/07/09 14:09:56;;;;;;;4.95;3.13;;;;;;;;;;10254109;28;20077;-67
2022/07/09 14:14:55;;;;;;;6.53;3.05;;;;;;;;;;10252183;28;20073;-68
2022/07/09 14:19:54;;;;;;;3.40;3.10;;;;;;;;;;10250890;28;20077;-68
2022/07/09 14:24:53;;;;;;;5.93;3.35;;;;;;;;;;10250783;28;20081;-65
2022/07/09 14:29:51;;;;;;;5.55;2.88;;;;;;;;;;10249328;28;20065;-66
2022/07/09 14:34:49;;;;;;;5.45;3.33;;;;;;;;;;10251747;28;20073;-65
2022/07/09 14:39:49;;;;;;;3.85;2.65;;;;;;;;;;10249504;28;20069;-65
2022/07/09 14:44:48;;;;;;;3.90;3.47;;;;;;;;;;10248783;28;20069;-65
2022/07/09 14:49:46;;;;;;;5.55;3.38;;;;;;;;;;10249715;28;20042;-64
2022/07/09 14:54:45;;;;;;;3.92;3.08;;;;;;;;;;10249388;28;20049;-65
2022/07/09 14:59:45;;;;;;;5.35;2.50;;;;;;;;;;10237225;28;20077;-66
2022/07/09 15:04:43;;;;;;;5.55;4.07;;;;;;;;;;10249480;28;20090;-66
2022/07/09 15:09:41;;;;;;;6.18;3.65;;;;;;;;;;10248958;28;20050;-65
2022/07/09 15:14:40;;;;;;;4.93;3.80;;;;;;;;;;10248672;28;20073;-65
2022/07/09 15:19:39;;;;;;;7.32;4.93;;;;;;;;;;10249496;28;20175;-64
2022/07/09 15:24:38;;;;;;;4.38;3.60;;;;;;;;;;10247523;28;20080;-65
2022/07/09 15:29:36;;;;;;;12.15;3.75;;;;;;;;;;10248312;28;20053;-65
2022/07/09 15:34:34;;;;;;;4.30;3.90;;;;;;;;;;10248213;28;20076;-65
2022/07/09 15:39:34;;;;;;;3.47;3.17;;;;;;;;;;10247776;28;20117;-65
2022/07/09 15:44:32;;;;;;;11.48;3.88;;;;;;;;;;10247835;28;20080;-66
2022/07/09 15:49:31;;;;;;;5.47;4.32;;;;;;;;;;10247214;28;20475;-65
2022/07/09 15:54:30;;;;;;;6.90;4.43;;;;;;;;;;10246459;28;20045;-66
2022/07/09 15:59:30;;;;;;;3.30;2.42;;;;;;;;;;10246093;28;20082;-65
2022/07/09 16:04:28;;;;;;;2.78;2.47;;;;;;;;;;10244259;28;20076;-66
2022/07/09 16:09:26;;;;;;;4.72;3.50;;;;;;;;;;10234448;28;20045;-66
2022/07/09 16:14:25;;;;;;;7.13;2.85;;;;;;;;;;10234413;28;20042;-66
2022/07/09 16:19:24;;;;;;;3.40;3.10;;;;;;;;;;10234422;28;20041;-65
2022/07/09 16:24:23;;;;;;;7.90;3.20;;;;;;;;;;10253246;28;20088;-66
2022/07/09 16:29:21;;;;;;;5.65;3.33;;;;;;;;;;10255687;28;20065;-65
2022/07/09 16:34:19;;;;;;;4.38;3.58;;;;;;;;;;10254935;28;20073;-65
2022/07/09 16:39:19;;;;;;;6.82;3.20;;;;;;;;;;10255155;28;20067;-65
2022/07/09 16:44:18;;;;;;;5.15;3.28;;;;;;;;;;10254476;28;20096;-65
2022/07/09 16:49:16;;;;;;;4.13;3.67;;;;;;;;;;10255049;28;20052;-66
2022/07/09 16:54:14;;;;;;;5.20;2.92;;;;;;;;;;10253704;28;20068;-64
2022/07/09 16:59:14;;;;;;;4.28;3.40;;;;;;;;;;10255286;28;20076;-65
2022/07/09 17:04:16;;;;;;;6.90;3.30;;;;;;;;;;10249760;28;20727;-65
2022/07/09 17:09:14;;;;;;;4.15;2.85;;;;;;;;;;10253816;28;20073;-65
2022/07/09 17:14:14;;;;;;;3.25;2.95;;;;;;;;;;10254278;28;20076;-65
2022/07/09 17:19:12;;;;;;;4.53;2.60;;;;;;;;;;10253489;28;20092;-66
2022/07/09 17:24:11;;;;;;;5.50;3.35;;;;;;;;;;10252047;28;20081;-65
2022/07/09 17:29:09;;;;;;;4.80;3.00;;;;;;;;;;10253669;28;20466;-66
2022/07/09 17:34:09;;;;;;;5.03;3.13;;;;;;;;;;10252835;28;20050;-65
2022/07/09 17:39:09;;;;;;;4.32;3.10;;;;;;;;;;10251922;28;20104;-65
2022/07/09 17:44:07;;;;;;;6.15;2.80;;;;;;;;;;10253084;28;20073;-64
2022/07/09 17:49:05;;;;;;;4.05;2.25;;;;;;;;;;10251272;28;20284;-65
2022/07/09 17:54:05;;;;;;;3.38;2.22;;;;;;;;;;10251395;28;20069;-65
2022/07/09 17:59:03;;;;;;;3.83;2.47;;;;;;;;;;10249661;28;20045;-65
2022/07/09 18:04:04;;;;;;;4.45;4.00;;;;;;;;;;10245366;28;20073;-66
2022/07/09 18:09:03;;;;;;;3.42;2.25;;;;;;;;;;10251277;28;20049;-65
2022/07/09 18:14:02;;;;;;;2.92;2.08;;;;;;;;;;10251935;28;20080;-66
2022/07/09 18:19:01;;;;;;;5.80;2.20;;;;;;;;;;10252020;28;20073;-66
2022/07/09 18:24:00;;;;;;;5.28;2.97;;;;;;;;;;10250778;28;20099;-65
2022/07/09 18:29:04;;;;;;;4.70;3.47;;;;;;;;;;10251320;28;20071;-65
2022/07/09 18:34:03;;;;;;;6.97;4.80;;;;;;;;;;10249850;28;20483;-65
2022/07/09 18:39:01;;;;;;;6.43;4.68;;;;;;;;;;10250128;28;20084;-66
2022/07/09 18:43:59;;;;;;;7.03;3.78;;;;;;;;;;10236914;28;20077;-64
2022/07/09 18:48:59;;;;;;;5.45;2.72;;;;;;;;;;10237266;28;20425;-65
2022/07/09 18:53:57;;;;;;;4.80;2.78;;;;;;;;;;10237172;28;20049;-65
2022/07/09 18:58:56;;;;;;;3.85;2.95;;;;;;;;;;10251617;28;20080;-65
2022/07/09 19:03:54;;;;;;;3.33;2.20;;;;;;;;;;10249237;28;20537;-66
2022/07/09 19:08:54;;;;;;;7.10;3.67;;;;;;;;;;10249400;28;20111;-65
2022/07/09 19:13:53;;;;;;;4.10;3.65;;;;;;;;;;10249244;28;20446;-66
2022/07/09 19:18:51;;;;;;;3.47;2.25;;;;;;;;;;10248181;28;20072;-65
2022/07/09 19:23:49;;;;;;;5.32;2.47;;;;;;;;;;10247663;28;20080;-65
2022/07/09 19:28:49;;;;;;;8.90;2.85;;;;;;;;;;10248254;28;20060;-64
2022/07/09 19:34:02;;;;;;;5.30;4.00;;;;;;;;;;10237202;28;20593;-66
2022/07/09 19:39:01;;;;;;;4.93;4.30;;;;;;;;;;10243422;28;20080;-65
2022/07/09 19:44:03;;;;;;;5.57;3.20;;;;;;;;;;10247885;28;20077;-64
2022/07/09 19:49:02;;;;;;;8.60;4.18;;;;;;;;;;10247018;28;20045;-66
2022/07/09 19:54:01;;;;;;;4.75;3.83;;;;;;;;;;10248003;28;20509;-65
2022/07/09 19:59:00;;;;;;;5.78;3.80;;;;;;;;;;10246432;28;20098;-65
2022/07/09 20:03:59;;;;;;;5.78;3.65;;;;;;;;;;10249940;28;20453;-65
2022/07/09 20:08:57;;;;;;;6.07;3.75;;;;;;;;;;10247058;28;20073;-65
2022/07/09 20:13:55;;;;;;;7.20;6.15;;;;;;;;;;10247700;28;20079;-66
2022/07/09 20:18:55;;;;;;;5.72;4.78;;;;;;;;;;10249001;28;20465;-66
2022/07/09 20:23:53;;;;;;;6.07;4.15;;;;;;;;;;10247030;28;20076;-66
2022/07/09 20:28:52;;;;;;;4.07;3.33;;;;;;;;;;10247447;28;20478;-66
2022/07/09 20:33:50;;;;;;;5.40;3.40;;;;;;;;;;10246958;28;20056;-65
2022/07/09 20:38:50;;;;;;;2.83;2.60;;;;;;;;;;10247190;28;20491;-66
2022/07/09 20:43:48;;;;;;;2.13;1.98;;;;;;;;;;10247454;28;20084;-65
2022/07/09 20:48:46;;;;;;;5.15;2.60;;;;;;;;;;10247450;28;20072;-64
2022/07/09 20:53:45;;;;;;;3.05;2.47;;;;;;;;;;10245238;28;20072;-65
2022/07/09 20:58:44;;;;;;;5.32;2.78;;;;;;;;;;10247473;28;20037;-65
2022/07/09 21:03:43;;;;;;;2.92;2.63;;;;;;;;;;10246049;28;20494;-64
2022/07/09 21:08:41;;;;;;;4.57;2.10;;;;;;;;;;10248266;28;20072;-65
2022/07/09 21:13:39;;;;;;;6.10;2.72;;;;;;;;;;10251837;28;20485;-65
2022/07/09 21:18:51;;;;;;;2.45;2.25;;;;;;;;;;10253203;28;20064;-65
2022/07/09 21:23:50;;;;;;;5.28;1.92;;;;;;;;;;10251983;28;20083;-65
2022/07/09 21:28:49;;;;;;;5.90;1.92;;;;;;;;;;10252294;28;20296;-65
2022/07/09 21:33:48;;;;;;;2.30;2.05;;;;;;;;;;10252426;28;20073;-65
2022/07/09 21:38:46;;;;;;;3.97;2.10;;;;;;;;;;10253278;28;20072;-65
2022/07/09 21:43:45;;;;;;;3.72;2.10;;;;;;;;;;10251984;28;20080;-65
2022/07/09 21:48:43;;;;;;;3.53;2.30;;;;;;;;;;10252078;28;20498;-65
2022/07/09 21:53:42;;;;;;;5.22;2.75;;;;;;;;;;10246996;28;20060;-65
2022/07/09 21:58:41;;;;;;;2.80;2.47;;;;;;;;;;10246851;28;20064;-64
2022/07/09 22:03:39;;;;;;;7.88;3.40;;;;;;;;;;10247382;28;20076;-65
2022/07/09 22:08:37;;;;;;;3.50;3.08;;;;;;;;;;10253654;28;20465;-65
2022/07/09 22:13:38;;;;;;;5.53;3.67;;;;;;;;;;10252001;28;20083;-65
2022/07/09 22:18:36;;;;;;;7.25;4.95;;;;;;;;;;10244505;28;20048;-65
2022/07/09 22:23:35;;;;;;;5.07;4.53;;;;;;;;;;10237013;28;20092;-65
2022/07/09 22:28:34;;;;;;;3.67;3.33;;;;;;;;;;10232376;28;20041;-65
2022/07/09 22:33:34;;;;;;;5.10;3.83;;;;;;;;;;10237830;28;20491;-65
2022/07/09 22:38:32;;;;;;;7.78;4.03;;;;;;;;;;10250188;28;20085;-65
2022/07/09 22:43:31;;;;;;;4.60;4.20;;;;;;;;;;10238640;28;20176;-66
2022/07/09 22:48:29;;;;;;;7.90;4.60;;;;;;;;;;10237271;28;20049;-66
2022/07/09 22:53:29;;;;;;;5.68;3.95;;;;;;;;;;10237019;28;20045;-66
2022/07/09 22:58:27;;;;;;;6.60;4.75;;;;;;;;;;10256918;28;20093;-66
2022/07/09 23:03:25;;;;;;;5.68;4.07;;;;;;;;;;10248517;28;20073;-65
2022/07/09 23:13:40;;;;;;;5.10;4.65;;;;;;;;;;10236351;28;20053;-65
2022/07/09 23:18:39;;;;;;;5.78;4.70;;;;;;;;;;10236195;28;20065;-65
2022/07/09 23:23:38;;;;;;;6.30;4.40;;;;;;;;;;10248959;28;20129;-65
2022/07/09 23:28:36;;;;;;;9.63;5.38;;;;;;;;;;10249268;28;20095;-65
2022/07/09 23:33:36;;;;;;;6.20;4.60;;;;;;;;;;10248259;28;20423;-65
2022/07/09 23:38:34;;;;;;;6.10;5.20;;;;;;;;;;10248077;28;20067;-65
2022/07/09 23:43:34;;;;;;;5.88;4.80;;;;;;;;;;10247673;28;20071;-65
2022/07/09 23:48:32;;;;;;;5.30;4.80;;;;;;;;;;10240232;28;20076;-64
2022/07/09 23:53:31;;;;;;;6.35;4.82;;;;;;;;;;10247844;28;20490;-65
2022/07/09 23:58:30;;;;;;;5.78;4.43;;;;;;;;;;10246697;28;20037;-64
